createdAt,value
2019-04-07T00:00:24.301Z,4.72
2019-04-07T00:01:24.177Z,4.75
2019-04-07T00:02:23.812Z,4.76
2019-04-07T00:03:24.329Z,4.69
2019-04-07T00:04:24.008Z,4.66
2019-04-07T00:05:24.334Z,4.69
2019-04-07T00:06:24.214Z,4.68
2019-04-07T00:07:24.351Z,4.69
2019-04-07T00:08:24.078Z,4.66
2019-04-07T00:09:23.713Z,4.68
2019-04-07T00:10:23.929Z,4.68
2019-04-07T00:11:24.345Z,4.69
2019-04-07T00:12:24.112Z,4.65
2019-04-07T00:13:23.655Z,4.66
2019-04-07T00:14:23.393Z,4.69
2019-04-07T00:15:24.331Z,4.66
2019-04-07T00:16:24.200Z,4.65
2019-04-07T00:17:23.885Z,4.64
2019-04-07T00:18:24.711Z,4.61
2019-04-07T00:19:23.330Z,4.51
2019-04-07T00:20:23.713Z,4.6
2019-04-07T00:21:24.034Z,4.5
2019-04-07T00:22:23.516Z,4.54
2019-04-07T00:23:23.779Z,4.58
2019-04-07T00:24:24.619Z,4.57
2019-04-07T00:25:24.045Z,4.57
2019-04-07T00:26:23.994Z,4.64
2019-04-07T00:27:23.790Z,4.5
2019-04-07T00:28:23.577Z,4.46
2019-04-07T00:29:23.933Z,4.5
2019-04-07T00:30:24.844Z,4.53
2019-04-07T00:31:24.137Z,4.48
2019-04-07T00:32:23.537Z,4.51
2019-04-07T00:33:25.517Z,4.51
2019-04-07T00:34:24.776Z,4.48
2019-04-07T00:35:34.961Z,4.53
2019-04-07T00:36:23.318Z,4.5
2019-04-07T00:37:23.413Z,4.48
2019-04-07T00:38:24.083Z,4.46
2019-04-07T00:39:23.856Z,4.5
2019-04-07T00:40:23.967Z,4.53
2019-04-07T00:41:23.379Z,4.51
2019-04-07T00:42:23.689Z,4.56
2019-04-07T00:43:24.151Z,4.48
2019-04-07T00:44:23.557Z,4.56
2019-04-07T00:45:23.991Z,4.44
2019-04-07T00:46:24.282Z,4.5
2019-04-07T00:47:23.430Z,4.48
2019-04-07T00:48:23.569Z,4.42
2019-04-07T00:49:23.135Z,4.46
2019-04-07T00:50:23.103Z,4.4
2019-04-07T00:51:23.548Z,4.42
2019-04-07T00:52:22.837Z,4.4
2019-04-07T00:53:23.798Z,4.38
2019-04-07T00:54:23.770Z,4.39
2019-04-07T00:55:24.234Z,4.39
2019-04-07T00:56:23.481Z,4.32
2019-04-07T00:57:23.332Z,4.36
2019-04-07T00:58:22.743Z,4.36
2019-04-07T00:59:23.300Z,4.36
2019-04-07T01:00:24.416Z,4.3
2019-04-07T01:01:22.891Z,4.33
2019-04-07T01:02:23.612Z,4.26
2019-04-07T01:03:23.037Z,4.32
2019-04-07T01:04:23.521Z,4.24
2019-04-07T01:05:34.069Z,4.15
2019-04-07T01:06:24.101Z,4.14
2019-04-07T01:07:23.383Z,4.12
2019-04-07T01:08:23.015Z,4.21
2019-04-07T01:09:23.491Z,4.14
2019-04-07T01:10:24.272Z,4.11
2019-04-07T01:11:23.106Z,4
2019-04-07T01:12:23.150Z,3.94
2019-04-07T01:13:23.234Z,3.96
2019-04-07T01:14:23.573Z,3.9
2019-04-07T01:15:23.361Z,3.94
2019-04-07T01:16:23.182Z,3.94
2019-04-07T01:17:22.702Z,3.85
2019-04-07T01:18:23.179Z,3.89
2019-04-07T01:19:22.777Z,3.92
2019-04-07T01:20:23.061Z,3.79
2019-04-07T01:21:22.800Z,3.84
2019-04-07T01:22:23.208Z,3.81
2019-04-07T01:23:23.501Z,3.79
2019-04-07T01:24:24.056Z,3.72
2019-04-07T01:25:22.748Z,3.75
2019-04-07T01:26:24.051Z,3.67
2019-04-07T01:27:23.538Z,3.72
2019-04-07T01:28:22.298Z,3.63
2019-04-07T01:29:23.398Z,3.67
2019-04-07T01:30:23.535Z,3.69
2019-04-07T01:31:22.586Z,3.71
2019-04-07T01:32:22.719Z,3.67
2019-04-07T01:33:23.578Z,3.6
2019-04-07T01:34:23.028Z,3.63
2019-04-07T01:35:22.825Z,3.57
2019-04-07T01:36:23.733Z,3.57
2019-04-07T01:37:22.549Z,3.63
2019-04-07T01:38:22.590Z,3.57
2019-04-07T01:39:23.040Z,3.53
2019-04-07T01:40:22.279Z,3.56
2019-04-07T01:41:22.843Z,3.57
2019-04-07T01:42:22.903Z,3.54
2019-04-07T01:43:22.720Z,3.46
2019-04-07T01:44:23.344Z,3.43
2019-04-07T01:45:23.691Z,3.48
2019-04-07T01:46:23.205Z,3.46
2019-04-07T01:47:23.047Z,3.4
2019-04-07T01:48:22.751Z,3.42
2019-04-07T01:49:22.979Z,3.48
2019-04-07T01:50:22.207Z,3.39
2019-04-07T01:51:23.694Z,3.39
2019-04-07T01:52:23.633Z,3.29
2019-04-07T01:53:22.874Z,3.39
2019-04-07T01:54:22.917Z,3.3
2019-04-07T01:55:23.499Z,3.27
2019-04-07T01:56:22.188Z,3.32
2019-04-07T01:57:23.542Z,3.2
2019-04-07T01:58:22.665Z,3.24
2019-04-07T01:59:22.335Z,3.23
2019-04-07T02:00:22.537Z,3.32
2019-04-07T02:01:22.169Z,3.24
2019-04-07T02:02:22.664Z,3.2
2019-04-07T02:03:23.098Z,3.17
2019-04-07T02:04:23.464Z,3.21
2019-04-07T02:05:22.291Z,3.21
2019-04-07T02:06:22.584Z,3.26
2019-04-07T02:07:22.225Z,3.27
2019-04-07T02:08:22.298Z,3.26
2019-04-07T02:09:22.539Z,3.23
2019-04-07T02:10:22.133Z,3.3
2019-04-07T02:11:22.065Z,3.35
2019-04-07T02:12:22.365Z,3.21
2019-04-07T02:13:22.814Z,3.35
2019-04-07T02:14:22.536Z,3.35
2019-04-07T02:15:22.018Z,3.39
2019-04-07T02:16:21.868Z,3.42
2019-04-07T02:17:22.173Z,3.45
2019-04-07T02:18:22.510Z,3.48
2019-04-07T02:19:22.875Z,3.42
2019-04-07T02:20:23.230Z,3.42
2019-04-07T02:21:22.242Z,3.45
2019-04-07T02:22:22.285Z,3.43
2019-04-07T02:23:22.706Z,3.48
2019-04-07T02:24:21.712Z,3.46
2019-04-07T02:25:22.117Z,3.43
2019-04-07T02:26:21.656Z,3.46
2019-04-07T02:27:22.031Z,3.46
2019-04-07T02:28:23.007Z,3.43
2019-04-07T02:29:21.908Z,3.37
2019-04-07T02:30:22.294Z,3.42
2019-04-07T02:31:22.414Z,3.39
2019-04-07T02:32:22.733Z,3.39
2019-04-07T02:33:24.243Z,3.42
2019-04-07T02:34:23.305Z,3.35
2019-04-07T02:35:21.504Z,3.3
2019-04-07T02:36:34.025Z,3.35
2019-04-07T02:37:23.038Z,3.34
2019-04-07T02:38:23.557Z,3.32
2019-04-07T02:39:23.875Z,3.32
2019-04-07T02:40:21.650Z,3.32
2019-04-07T02:41:22.568Z,3.32
2019-04-07T02:42:22.826Z,3.34
2019-04-07T02:43:21.935Z,3.35
2019-04-07T02:44:22.444Z,3.42
2019-04-07T02:45:22.194Z,3.45
2019-04-07T02:46:23.654Z,3.45
2019-04-07T02:47:22.516Z,3.39
2019-04-07T02:48:22.144Z,3.43
2019-04-07T02:49:22.327Z,3.4
2019-04-07T02:50:22.215Z,3.42
2019-04-07T02:51:22.884Z,3.45
2019-04-07T02:52:21.506Z,3.49
2019-04-07T02:53:21.900Z,3.43
2019-04-07T02:54:23.019Z,3.46
2019-04-07T02:55:22.025Z,3.4
2019-04-07T02:56:21.085Z,3.48
2019-04-07T02:57:22.071Z,3.39
2019-04-07T02:58:21.212Z,3.32
2019-04-07T02:59:22.963Z,3.3
2019-04-07T03:00:22.082Z,3.21
2019-04-07T03:01:21.887Z,3.2
2019-04-07T03:02:22.017Z,3.23
2019-04-07T03:03:22.826Z,3.24
2019-04-07T03:04:22.893Z,3.3
2019-04-07T03:05:22.203Z,3.24
2019-04-07T03:06:52.136Z,3.32
2019-04-07T03:07:22.424Z,3.29
2019-04-07T03:08:21.053Z,3.24
2019-04-07T03:09:21.820Z,3.3
2019-04-07T03:10:21.604Z,3.19
2019-04-07T03:11:21.385Z,3.24
2019-04-07T03:12:21.584Z,3.24
2019-04-07T03:13:21.652Z,3.21
2019-04-07T03:14:21.557Z,3.21
2019-04-07T03:15:22.661Z,3.21
2019-04-07T03:16:22.389Z,3.17
2019-04-07T03:17:20.836Z,3.26
2019-04-07T03:18:25.153Z,3.24
2019-04-07T03:19:22.137Z,3.3
2019-04-07T03:20:21.632Z,3.32
2019-04-07T03:21:22.579Z,3.29
2019-04-07T03:22:21.106Z,3.4
2019-04-07T03:23:21.153Z,3.37
2019-04-07T03:24:21.930Z,3.4
2019-04-07T03:25:20.894Z,3.29
2019-04-07T03:26:21.112Z,3.4
2019-04-07T03:27:20.681Z,3.19
2019-04-07T03:28:22.683Z,3.26
2019-04-07T03:29:20.860Z,3.24
2019-04-07T03:30:27.161Z,3.17
2019-04-07T03:31:27.259Z,3.21
2019-04-07T03:32:30.033Z,3.27
2019-04-07T03:33:29.541Z,3.35
2019-04-07T03:34:25.297Z,3.21
2019-04-07T03:35:30.203Z,3.23
2019-04-07T03:36:30.175Z,3.23
2019-04-07T03:37:49.303Z,3.23
2019-04-07T03:38:36.624Z,3.23
2019-04-07T03:39:35.773Z,3.23
2019-04-07T03:40:36.775Z,3.2
2019-04-07T03:41:37.416Z,3.26
2019-04-07T03:42:36.996Z,3.24
2019-04-07T03:43:35.828Z,3.16
2019-04-07T03:44:36.406Z,3.17
2019-04-07T03:45:36.324Z,3.11
2019-04-07T03:46:35.150Z,3.14
2019-04-07T03:47:35.527Z,3.2
2019-04-07T03:48:38.013Z,3.14
2019-04-07T03:49:38.045Z,3.16
2019-04-07T03:50:37.090Z,3.08
2019-04-07T03:51:36.389Z,3.08
2019-04-07T03:52:35.495Z,3.03
2019-04-07T03:53:36.086Z,3.14
2019-04-07T03:54:36.634Z,3.11
2019-04-07T03:55:36.527Z,3.16
2019-04-07T03:56:37.221Z,3.06
2019-04-07T03:57:36.571Z,3.13
2019-04-07T03:58:36.282Z,3.03
2019-04-07T03:59:36.440Z,3.17
2019-04-07T04:00:36.252Z,3.02
2019-04-07T04:01:35.865Z,3.16
2019-04-07T04:02:37.869Z,3.14
2019-04-07T04:03:35.133Z,3.08
2019-04-07T04:04:36.042Z,3.16
2019-04-07T04:05:36.320Z,3.09
2019-04-07T04:06:35.343Z,3.08
2019-04-07T04:07:42.401Z,3.09
2019-04-07T04:08:38.285Z,3.16
2019-04-07T04:09:37.904Z,3.09
2019-04-07T04:10:35.005Z,3.06
2019-04-07T04:11:34.983Z,3.09
2019-04-07T04:12:35.605Z,3.01
2019-04-07T04:13:35.760Z,3.02
2019-04-07T04:14:36.393Z,2.99
2019-04-07T04:15:36.441Z,2.93
2019-04-07T04:16:34.906Z,2.91
2019-04-07T04:17:35.493Z,2.9
2019-04-07T04:18:35.510Z,2.88
2019-04-07T04:19:36.178Z,2.81
2019-04-07T04:20:34.859Z,2.87
2019-04-07T04:21:36.320Z,2.95
2019-04-07T04:22:35.901Z,2.83
2019-04-07T04:23:36.028Z,2.81
2019-04-07T04:24:36.746Z,2.83
2019-04-07T04:25:35.273Z,2.69
2019-04-07T04:26:35.812Z,2.72
2019-04-07T04:27:36.830Z,2.66
2019-04-07T04:28:35.481Z,2.66
2019-04-07T04:29:35.682Z,2.66
2019-04-07T04:30:34.738Z,2.55
2019-04-07T04:31:34.654Z,2.54
2019-04-07T04:32:35.825Z,2.52
2019-04-07T04:33:35.776Z,2.51
2019-04-07T04:34:35.372Z,2.55
2019-04-07T04:35:34.877Z,2.48
2019-04-07T04:36:34.582Z,2.38
2019-04-07T04:37:54.725Z,2.4
2019-04-07T04:38:34.808Z,2.4
2019-04-07T04:39:35.226Z,2.38
2019-04-07T04:40:34.845Z,2.4
2019-04-07T04:41:36.235Z,2.34
2019-04-07T04:42:36.221Z,2.36
2019-04-07T04:43:34.547Z,2.3
2019-04-07T04:44:34.445Z,2.33
2019-04-07T04:45:34.441Z,2.34
2019-04-07T04:46:35.298Z,2.41
2019-04-07T04:47:35.222Z,2.48
2019-04-07T04:48:35.167Z,2.44
2019-04-07T04:49:35.219Z,2.45
2019-04-07T04:50:35.272Z,2.48
2019-04-07T04:51:40.807Z,2.58
2019-04-07T04:52:34.502Z,2.59
2019-04-07T04:53:35.609Z,2.58
2019-04-07T04:54:35.177Z,2.58
2019-04-07T04:55:35.034Z,2.52
2019-04-07T04:56:35.143Z,2.63
2019-04-07T04:57:35.218Z,2.63
2019-04-07T04:58:35.948Z,2.7
2019-04-07T04:59:36.466Z,2.69
2019-04-07T05:00:34.584Z,2.62
2019-04-07T05:01:36.050Z,2.76
2019-04-07T05:02:35.228Z,2.72
2019-04-07T05:03:34.816Z,2.72
2019-04-07T05:04:34.436Z,2.77
2019-04-07T05:05:35.605Z,2.8
2019-04-07T05:06:34.452Z,2.77
2019-04-07T05:07:47.643Z,2.84
2019-04-07T05:08:34.813Z,2.96
2019-04-07T05:09:55.586Z,2.93
2019-04-07T05:10:34.827Z,2.98
2019-04-07T05:11:34.424Z,3.08
2019-04-07T05:12:33.764Z,3.06
2019-04-07T05:13:34.159Z,3.09
2019-04-07T05:14:34.500Z,3.06
2019-04-07T05:15:35.141Z,3.17
2019-04-07T05:16:34.506Z,3.16
2019-04-07T05:17:33.945Z,3.23
2019-04-07T05:18:34.728Z,3.2
2019-04-07T05:19:34.657Z,3.23
2019-04-07T05:20:34.516Z,3.19
2019-04-07T05:21:34.039Z,3.19
2019-04-07T05:22:34.483Z,3.23
2019-04-07T05:23:34.800Z,3.34
2019-04-07T05:24:35.035Z,3.34
2019-04-07T05:25:34.902Z,3.35
2019-04-07T05:26:34.511Z,3.48
2019-04-07T05:27:34.098Z,3.46
2019-04-07T05:28:39.590Z,3.49
2019-04-07T05:29:34.033Z,3.48
2019-04-07T05:30:33.848Z,3.48
2019-04-07T05:31:33.972Z,3.54
2019-04-07T05:32:33.659Z,3.51
2019-04-07T05:33:34.552Z,3.51
2019-04-07T05:34:33.534Z,3.46
2019-04-07T05:35:34.157Z,3.45
2019-04-07T05:36:33.784Z,3.53
2019-04-07T05:37:34.343Z,3.54
2019-04-07T05:38:33.579Z,3.57
2019-04-07T05:39:34.106Z,3.6
2019-04-07T05:40:34.551Z,3.71
2019-04-07T05:41:34.987Z,3.71
2019-04-07T05:42:34.148Z,3.67
2019-04-07T05:43:33.934Z,3.71
2019-04-07T05:44:34.366Z,3.66
2019-04-07T05:45:36.654Z,3.76
2019-04-07T05:46:33.593Z,3.81
2019-04-07T05:47:33.969Z,3.89
2019-04-07T05:48:34.245Z,3.9
2019-04-07T05:49:34.390Z,4
2019-04-07T05:50:34.888Z,4.03
2019-04-07T05:51:36.231Z,4.08
2019-04-07T05:52:39.612Z,4.1
2019-04-07T05:53:33.418Z,4.12
2019-04-07T05:54:34.030Z,4.22
2019-04-07T05:55:34.649Z,4.26
2019-04-07T05:56:33.991Z,4.38
2019-04-07T05:57:38.745Z,4.47
2019-04-07T05:58:37.415Z,4.53
2019-04-07T05:59:34.292Z,4.51
2019-04-07T06:00:33.990Z,4.48
2019-04-07T06:01:34.467Z,4.53
2019-04-07T06:02:37.780Z,4.64
2019-04-07T06:03:33.264Z,4.65
2019-04-07T06:04:33.930Z,4.65
2019-04-07T06:05:34.365Z,4.71
2019-04-07T06:06:34.310Z,4.66
2019-04-07T06:07:39.117Z,4.69
2019-04-07T06:08:42.645Z,4.72
2019-04-07T06:09:36.231Z,4.78
2019-04-07T06:10:34.872Z,4.88
2019-04-07T06:11:38.811Z,4.9
2019-04-07T06:12:33.982Z,4.92
2019-04-07T06:13:34.590Z,4.92
2019-04-07T06:14:33.481Z,5
2019-04-07T06:15:33.612Z,5.09
2019-04-07T06:16:33.398Z,5.16
2019-04-07T06:17:34.626Z,5.16
2019-04-07T06:18:36.954Z,5.12
2019-04-07T06:19:36.776Z,5.21
2019-04-07T06:20:33.422Z,5.36
2019-04-07T06:21:33.836Z,5.39
2019-04-07T06:22:33.824Z,5.46
2019-04-07T06:23:36.320Z,5.59
2019-04-07T06:24:37.524Z,5.57
2019-04-07T06:25:45.003Z,5.73
2019-04-07T06:26:34.140Z,5.8
2019-04-07T06:27:35.992Z,5.77
2019-04-07T06:28:32.734Z,5.89
2019-04-07T06:29:33.384Z,5.96
2019-04-07T06:30:38.463Z,6.02
2019-04-07T06:31:37.130Z,6.07
2019-04-07T06:32:36.044Z,6.06
2019-04-07T06:33:37.364Z,6.2
2019-04-07T06:34:32.911Z,6.21
2019-04-07T06:35:33.573Z,6.24
2019-04-07T06:36:34.991Z,6.31
2019-04-07T06:37:34.232Z,6.4
2019-04-07T06:38:49.627Z,6.55
2019-04-07T06:39:35.194Z,6.54
2019-04-07T06:40:34.777Z,6.75
2019-04-07T06:41:36.759Z,6.93
2019-04-07T06:42:36.761Z,7.26
2019-04-07T06:43:35.098Z,7.49
2019-04-07T06:44:33.391Z,8.07
2019-04-07T06:45:33.354Z,8.52
2019-04-07T06:46:33.200Z,9.09
2019-04-07T06:47:37.018Z,9.48
2019-04-07T06:48:33.052Z,9.95
2019-04-07T06:49:35.156Z,10.47
2019-04-07T06:50:44.673Z,11.06
2019-04-07T06:51:35.874Z,11.81
2019-04-07T06:52:41.647Z,12.36
2019-04-07T06:53:32.769Z,12.81
2019-04-07T06:54:33.151Z,13.2
2019-04-07T06:55:36.383Z,13.48
2019-04-07T06:56:38.643Z,13.68
2019-04-07T06:57:35.153Z,14.11
2019-04-07T06:58:32.974Z,14.48
2019-04-07T06:59:33.070Z,15.05
2019-04-07T07:00:32.811Z,15.56
2019-04-07T07:01:33.703Z,16.26
2019-04-07T07:02:35.850Z,16.85
2019-04-07T07:03:38.662Z,17.49
2019-04-07T07:04:32.654Z,17.9
2019-04-07T07:05:36.827Z,18.29
2019-04-07T07:06:33.269Z,18.57
2019-04-07T07:07:33.392Z,18.9
2019-04-07T07:08:46.604Z,19.07
2019-04-07T07:09:34.955Z,19.19
2019-04-07T07:10:41.832Z,18.97
2019-04-07T07:11:41.390Z,18.71
2019-04-07T07:12:43.871Z,18.59
2019-04-07T07:13:42.900Z,18.78
2019-04-07T07:14:47.393Z,19.16
2019-04-07T07:15:37.208Z,19.49
2019-04-07T07:16:32.469Z,19.74
2019-04-07T07:17:33.472Z,20.02
2019-04-07T07:18:33.885Z,20.34
2019-04-07T07:19:34.671Z,20.56
2019-04-07T07:20:34.290Z,20.78
2019-04-07T07:21:39.250Z,20.68
2019-04-07T07:22:33.682Z,20.74
2019-04-07T07:23:32.209Z,20.66
2019-04-07T07:24:32.646Z,20.61
2019-04-07T07:25:37.282Z,20.32
2019-04-07T07:26:37.636Z,19.98
2019-04-07T07:27:32.795Z,19.55
2019-04-07T07:28:32.592Z,19.25
2019-04-07T07:29:33.687Z,18.71
2019-04-07T07:30:33.902Z,18.31
2019-04-07T07:31:31.902Z,17.8
2019-04-07T07:32:38.839Z,17.31
2019-04-07T07:33:33.428Z,16.92
2019-04-07T07:34:32.818Z,16.36
2019-04-07T07:35:32.294Z,15.89
2019-04-07T07:36:32.859Z,15.4
2019-04-07T07:37:34.071Z,15.05
2019-04-07T07:38:37.005Z,14.66
2019-04-07T07:39:32.920Z,14.46
2019-04-07T07:40:34.614Z,14.26
2019-04-07T07:41:33.569Z,13.99
2019-04-07T07:42:33.005Z,13.7
2019-04-07T07:43:34.314Z,13.53
2019-04-07T07:44:38.222Z,13.44
2019-04-07T07:45:32.923Z,13.31
2019-04-07T07:46:33.296Z,13.2
2019-04-07T07:47:32.559Z,13.2
2019-04-07T07:48:33.876Z,13.27
2019-04-07T07:49:40.246Z,13.2
2019-04-07T07:50:34.629Z,13.32
2019-04-07T07:51:32.692Z,13.25
2019-04-07T07:52:32.172Z,13.36
2019-04-07T07:53:34.027Z,13.4
2019-04-07T07:54:35.088Z,13.4
2019-04-07T07:55:37.534Z,13.37
2019-04-07T07:56:32.773Z,13.39
2019-04-07T07:57:32.897Z,13.37
2019-04-07T07:58:37.175Z,13.35
2019-04-07T07:59:42.085Z,13.25
2019-04-07T08:00:32.085Z,13.24
2019-04-07T08:01:33.153Z,13.16
2019-04-07T08:02:35.172Z,13.13
2019-04-07T08:03:32.761Z,13.25
2019-04-07T08:04:33.371Z,13.16
2019-04-07T08:05:37.793Z,13.24
2019-04-07T08:06:32.663Z,13.28
2019-04-07T08:07:32.623Z,13.2
2019-04-07T08:08:33.078Z,13.28
2019-04-07T08:09:32.848Z,13.21
2019-04-07T08:10:33.017Z,13.28
2019-04-07T08:11:37.353Z,13.27
2019-04-07T08:12:35.781Z,13.19
2019-04-07T08:13:32.534Z,13.17
2019-04-07T08:14:32.753Z,13.28
2019-04-07T08:15:37.035Z,13.17
2019-04-07T08:16:37.266Z,13.32
2019-04-07T08:17:36.557Z,13.44
2019-04-07T08:18:32.064Z,13.48
2019-04-07T08:19:36.218Z,13.53
2019-04-07T08:20:33.859Z,13.65
2019-04-07T08:21:32.602Z,13.6
2019-04-07T08:22:46.026Z,13.65
2019-04-07T08:23:32.088Z,13.73
2019-04-07T08:24:32.819Z,13.86
2019-04-07T08:25:31.739Z,13.83
2019-04-07T08:26:34.118Z,13.79
2019-04-07T08:27:36.937Z,13.94
2019-04-07T08:28:34.986Z,13.95
2019-04-07T08:29:33.364Z,13.9
2019-04-07T08:30:31.935Z,13.94
2019-04-07T08:31:31.690Z,14.01
2019-04-07T08:32:36.412Z,14.03
2019-04-07T08:33:35.483Z,14.11
2019-04-07T08:34:36.119Z,14.13
2019-04-07T08:35:35.614Z,14.28
2019-04-07T08:36:32.692Z,14.33
2019-04-07T08:37:32.012Z,14.36
2019-04-07T08:38:34.315Z,14.48
2019-04-07T08:39:38.798Z,14.48
2019-04-07T08:40:36.445Z,14.66
2019-04-07T08:41:32.576Z,14.61
2019-04-07T08:42:32.705Z,14.71
2019-04-07T08:43:33.134Z,14.93
2019-04-07T08:44:34.417Z,15.13
2019-04-07T08:45:36.202Z,15.18
2019-04-07T08:46:38.537Z,15.25
2019-04-07T08:47:32.454Z,15.25
2019-04-07T08:48:33.291Z,15.27
2019-04-07T08:49:35.688Z,15.3
2019-04-07T08:50:34.264Z,15.3
2019-04-07T08:51:36.193Z,15.41
2019-04-07T08:52:32.020Z,15.41
2019-04-07T08:53:31.861Z,15.45
2019-04-07T08:54:33.006Z,15.62
2019-04-07T08:55:32.275Z,15.75
2019-04-07T08:56:34.069Z,15.73
2019-04-07T08:57:34.830Z,15.93
2019-04-07T08:58:40.121Z,15.93
2019-04-07T08:59:32.654Z,15.84
2019-04-07T09:00:32.426Z,15.83
2019-04-07T09:01:34.937Z,15.68
2019-04-07T09:02:34.719Z,15.75
2019-04-07T09:03:31.615Z,15.78
2019-04-07T09:04:31.985Z,15.88
2019-04-07T09:05:36.531Z,15.88
2019-04-07T09:06:33.980Z,16.06
2019-04-07T09:07:35.424Z,16.18
2019-04-07T09:08:34.595Z,16.22
2019-04-07T09:09:49.058Z,16.33
2019-04-07T09:10:35.688Z,16.32
2019-04-07T09:11:33.524Z,16.3
2019-04-07T09:12:34.998Z,16.54
2019-04-07T09:13:36.254Z,16.54
2019-04-07T09:14:32.142Z,16.51
2019-04-07T09:15:31.828Z,16.51
2019-04-07T09:16:31.446Z,16.52
2019-04-07T09:17:47.414Z,16.62
2019-04-07T09:18:32.039Z,16.69
2019-04-07T09:19:34.923Z,16.91
2019-04-07T09:20:31.736Z,17.06
2019-04-07T09:21:49.361Z,17.24
2019-04-07T09:22:34.604Z,17.39
2019-04-07T09:23:34.351Z,17.55
2019-04-07T09:24:35.980Z,17.54
2019-04-07T09:25:35.763Z,17.84
2019-04-07T09:26:32.082Z,17.95
2019-04-07T09:27:31.250Z,17.86
2019-04-07T09:28:31.597Z,17.99
2019-04-07T09:29:34.010Z,18.05
2019-04-07T09:30:32.155Z,17.98
2019-04-07T09:31:32.577Z,17.94
2019-04-07T09:32:32.253Z,18.05
2019-04-07T09:33:34.706Z,18.27
2019-04-07T09:34:32.311Z,18.27
2019-04-07T09:35:32.210Z,18.44
2019-04-07T09:36:34.003Z,18.42
2019-04-07T09:37:32.347Z,18.49
2019-04-07T09:38:32.144Z,18.39
2019-04-07T09:39:54.501Z,18.19
2019-04-07T09:40:31.827Z,18.11
2019-04-07T09:41:33.433Z,17.81
2019-04-07T09:42:31.315Z,17.54
2019-04-07T09:43:34.886Z,17.15
2019-04-07T09:44:37.738Z,16.91
2019-04-07T09:45:31.275Z,16.69
2019-04-07T09:46:31.259Z,16.44
2019-04-07T09:47:31.616Z,16.22
2019-04-07T09:48:32.109Z,15.99
2019-04-07T09:49:31.937Z,15.68
2019-04-07T09:50:33.676Z,15.4
2019-04-07T09:51:32.005Z,15.15
2019-04-07T09:52:31.884Z,14.86
2019-04-07T09:53:32.869Z,14.63
2019-04-07T09:54:31.213Z,14.49
2019-04-07T09:55:33.221Z,14.39
2019-04-07T09:56:36.254Z,14.3
2019-04-07T09:57:31.445Z,14.2
2019-04-07T09:58:31.953Z,14.09
2019-04-07T09:59:30.813Z,14.19
2019-04-07T10:00:32.031Z,14.13
2019-04-07T10:01:34.256Z,14.09
2019-04-07T10:02:38.349Z,14.09
2019-04-07T10:03:31.135Z,14.06
2019-04-07T10:04:31.131Z,14.03
2019-04-07T10:05:33.261Z,13.99
2019-04-07T10:06:31.117Z,13.9
2019-04-07T10:07:33.287Z,13.86
2019-04-07T10:08:31.581Z,13.76
2019-04-07T10:09:32.216Z,13.81
2019-04-07T10:10:33.912Z,13.76
2019-04-07T10:11:32.591Z,13.66
2019-04-07T10:12:34.680Z,13.73
2019-04-07T10:13:30.824Z,13.76
2019-04-07T10:14:32.156Z,13.81
2019-04-07T10:15:31.660Z,13.99
2019-04-07T10:16:36.212Z,13.97
2019-04-07T10:17:31.761Z,13.97
2019-04-07T10:18:32.504Z,13.97
2019-04-07T10:19:32.744Z,14.05
2019-04-07T10:20:31.472Z,14.02
2019-04-07T10:21:31.186Z,14.01
2019-04-07T10:22:31.993Z,13.95
2019-04-07T10:23:32.021Z,13.95
2019-04-07T10:24:31.416Z,13.99
2019-04-07T10:25:34.278Z,13.91
2019-04-07T10:26:32.462Z,14.06
2019-04-07T10:27:31.372Z,13.91
2019-04-07T10:28:31.297Z,13.91
2019-04-07T10:29:31.866Z,13.93
2019-04-07T10:30:32.036Z,13.91
2019-04-07T10:31:32.507Z,13.95
2019-04-07T10:32:33.998Z,14.05
2019-04-07T10:33:31.723Z,14.09
2019-04-07T10:34:30.958Z,14.2
2019-04-07T10:35:30.711Z,14.33
2019-04-07T10:36:31.885Z,14.46
2019-04-07T10:37:31.492Z,14.51
2019-04-07T10:38:31.778Z,14.74
2019-04-07T10:39:31.005Z,14.93
2019-04-07T10:40:31.236Z,15.04
2019-04-07T10:41:32.657Z,15.25
2019-04-07T10:42:30.715Z,15.3
2019-04-07T10:43:31.387Z,15.35
2019-04-07T10:44:32.359Z,15.53
2019-04-07T10:45:32.921Z,15.7
2019-04-07T10:46:32.484Z,15.92
2019-04-07T10:47:31.504Z,16.27
2019-04-07T10:48:32.198Z,16.48
2019-04-07T10:49:31.923Z,16.7
2019-04-07T10:50:32.452Z,16.9
2019-04-07T10:51:31.959Z,16.99
2019-04-07T10:52:31.434Z,17.02
2019-04-07T10:53:34.316Z,17.27
2019-04-07T10:54:31.530Z,17.28
2019-04-07T10:55:31.303Z,17.24
2019-04-07T10:56:32.043Z,17.36
2019-04-07T10:57:32.200Z,17.4
2019-04-07T10:58:31.345Z,17.2
2019-04-07T10:59:32.282Z,17.17
2019-04-07T11:00:31.280Z,17.06
2019-04-07T11:01:32.106Z,17.06
2019-04-07T11:02:31.737Z,17.1
2019-04-07T11:03:30.838Z,17.09
2019-04-07T11:04:30.765Z,17.18
2019-04-07T11:05:31.315Z,17.13
2019-04-07T11:06:31.587Z,17.03
2019-04-07T11:07:31.747Z,16.94
2019-04-07T11:08:32.049Z,16.95
2019-04-07T11:09:32.354Z,16.85
2019-04-07T11:10:41.962Z,16.84
2019-04-07T11:11:31.509Z,16.81
2019-04-07T11:12:31.215Z,16.7
2019-04-07T11:13:32.543Z,16.62
2019-04-07T11:14:31.772Z,16.47
2019-04-07T11:15:30.736Z,16.54
2019-04-07T11:16:32.814Z,16.47
2019-04-07T11:17:31.637Z,16.45
2019-04-07T11:18:31.561Z,16.58
2019-04-07T11:19:34.335Z,16.47
2019-04-07T11:20:30.654Z,16.44
2019-04-07T11:21:31.077Z,16.36
2019-04-07T11:22:32.800Z,16.33
2019-04-07T11:23:31.998Z,16.29
2019-04-07T11:24:33.919Z,16.27
2019-04-07T11:25:31.601Z,16.27
2019-04-07T11:26:30.994Z,16.32
2019-04-07T11:27:31.896Z,16.32
2019-04-07T11:28:34.210Z,16.37
2019-04-07T11:29:31.300Z,16.39
2019-04-07T11:30:32.029Z,16.42
2019-04-07T11:31:32.167Z,16.36
2019-04-07T11:32:31.300Z,16.54
2019-04-07T11:33:31.153Z,16.52
2019-04-07T11:34:30.636Z,16.57
2019-04-07T11:35:34.572Z,16.48
2019-04-07T11:36:31.314Z,16.37
2019-04-07T11:37:31.619Z,16.29
2019-04-07T11:38:32.278Z,16.27
2019-04-07T11:39:31.485Z,16.21
2019-04-07T11:40:41.814Z,16.18
2019-04-07T11:41:34.189Z,15.86
2019-04-07T11:42:30.695Z,15.74
2019-04-07T11:43:30.585Z,15.68
2019-04-07T11:44:31.253Z,15.77
2019-04-07T11:45:31.413Z,15.74
2019-04-07T11:46:31.903Z,15.67
2019-04-07T11:47:31.603Z,15.74
2019-04-07T11:48:30.684Z,15.92
2019-04-07T11:49:31.411Z,15.83
2019-04-07T11:50:30.961Z,15.98
2019-04-07T11:51:31.410Z,16.11
2019-04-07T11:52:32.101Z,15.98
2019-04-07T11:53:30.739Z,16
2019-04-07T11:54:32.640Z,15.91
2019-04-07T11:55:33.388Z,15.93
2019-04-07T11:56:31.040Z,15.88
2019-04-07T11:57:31.995Z,15.86
2019-04-07T11:58:38.651Z,15.99
2019-04-07T11:59:31.713Z,16.07
2019-04-07T12:00:31.398Z,16.32
2019-04-07T12:01:31.659Z,16.32
2019-04-07T12:02:31.790Z,16.42
2019-04-07T12:03:33.399Z,16.47
2019-04-07T12:04:32.578Z,16.37
2019-04-07T12:05:31.158Z,16.33
2019-04-07T12:06:30.562Z,16.27
2019-04-07T12:07:30.503Z,16.18
2019-04-07T12:08:38.934Z,16.29
2019-04-07T12:09:30.559Z,16.33
2019-04-07T12:10:31.822Z,16.27
2019-04-07T12:11:30.985Z,16.26
2019-04-07T12:12:31.401Z,16.34
2019-04-07T12:13:32.982Z,16.29
2019-04-07T12:14:31.954Z,16.29
2019-04-07T12:15:33.451Z,16.21
2019-04-07T12:16:34.989Z,16.37
2019-04-07T12:17:31.864Z,16.37
2019-04-07T12:18:30.893Z,16.3
2019-04-07T12:19:32.070Z,16.33
2019-04-07T12:20:36.345Z,16.25
2019-04-07T12:21:35.284Z,16.21
2019-04-07T12:22:30.681Z,15.96
2019-04-07T12:23:33.710Z,15.77
2019-04-07T12:24:33.660Z,15.59
2019-04-07T12:25:34.735Z,15.53
2019-04-07T12:26:31.459Z,15.56
2019-04-07T12:27:31.465Z,15.62
2019-04-07T12:28:31.326Z,15.62
2019-04-07T12:29:31.198Z,15.58
2019-04-07T12:30:31.581Z,15.63
2019-04-07T12:31:31.795Z,15.65
2019-04-07T12:32:32.291Z,15.71
2019-04-07T12:33:32.794Z,15.74
2019-04-07T12:34:31.003Z,15.77
2019-04-07T12:35:32.560Z,15.77
2019-04-07T12:36:35.728Z,15.95
2019-04-07T12:37:31.693Z,16.02
2019-04-07T12:38:31.858Z,16.21
2019-04-07T12:39:33.636Z,16.26
2019-04-07T12:40:32.207Z,16.33
2019-04-07T12:41:35.756Z,16.32
2019-04-07T12:42:30.004Z,16.3
2019-04-07T12:43:31.617Z,16.3
2019-04-07T12:44:30.069Z,16.25
2019-04-07T12:45:30.664Z,16.27
2019-04-07T12:46:30.364Z,16.3
2019-04-07T12:47:30.553Z,16.17
2019-04-07T12:48:34.883Z,16.07
2019-04-07T12:49:33.084Z,16.04
2019-04-07T12:50:30.516Z,15.96
2019-04-07T12:51:31.798Z,15.86
2019-04-07T12:52:35.469Z,15.8
2019-04-07T12:53:36.519Z,15.7
2019-04-07T12:54:30.190Z,15.63
2019-04-07T12:55:32.584Z,15.6
2019-04-07T12:56:34.326Z,15.47
2019-04-07T12:57:35.291Z,15.41
2019-04-07T12:58:30.283Z,15.34
2019-04-07T12:59:30.767Z,15.34
2019-04-07T13:00:30.825Z,15.3
2019-04-07T13:01:30.555Z,15.25
2019-04-07T13:02:31.641Z,15.18
2019-04-07T13:03:30.264Z,15.22
2019-04-07T13:04:31.787Z,15.31
2019-04-07T13:05:34.476Z,15.27
2019-04-07T13:06:30.186Z,15.23
2019-04-07T13:07:31.216Z,15.13
2019-04-07T13:08:32.136Z,15.22